sensor_id;sensor_type;location;lat;lon;timestamp;pressure;altitude;pressure_sealevel;temperature
69420;BMP280;56612;52.030;113.524;2022-12-18T00:01:58;93262.03;;;-18.08
69420;BMP280;56612;52.030;113.524;2022-12-18T00:05:05;93257.75;;;-18.17
69420;BMP280;56612;52.030;113.524;2022-12-18T00:08:09;93270.31;;;-18.13
69420;BMP280;56612;52.030;113.524;2022-12-18T00:11:18;93256.00;;;-18.11
69420;BMP280;56612;52.030;113.524;2022-12-18T00:14:23;93258.97;;;-18.12
69420;BMP280;56612;52.030;113.524;2022-12-18T00:17:27;93262.31;;;-18.06
69420;BMP280;56612;52.030;113.524;2022-12-18T00:20:30;93272.41;;;-18.12
69420;BMP280;56612;52.030;113.524;2022-12-18T00:23:34;93264.88;;;-18.21
69420;BMP280;56612;52.030;113.524;2022-12-18T00:26:39;93266.38;;;-18.14
69420;BMP280;56612;52.030;113.524;2022-12-18T00:29:42;93260.88;;;-18.07
69420;BMP280;56612;52.030;113.524;2022-12-18T00:32:46;93266.28;;;-18.05
69420;BMP280;56612;52.030;113.524;2022-12-18T00:35:49;93259.56;;;-18.03
69420;BMP280;56612;52.030;113.524;2022-12-18T00:38:56;93264.31;;;-17.95
69420;BMP280;56612;52.030;113.524;2022-12-18T00:42:00;93268.50;;;-17.92
69420;BMP280;56612;52.030;113.524;2022-12-18T00:45:27;93258.75;;;-17.94
69420;BMP280;56612;52.030;113.524;2022-12-18T00:48:31;93261.47;;;-17.98
69420;BMP280;56612;52.030;113.524;2022-12-18T00:51:35;93264.31;;;-17.95
69420;BMP280;56612;52.030;113.524;2022-12-18T00:54:38;93266.97;;;-18.05
69420;BMP280;56612;52.030;113.524;2022-12-18T00:57:42;93260.25;;;-18.02
69420;BMP280;56612;52.030;113.524;2022-12-18T01:00:46;93262.69;;;-17.93
69420;BMP280;56612;52.030;113.524;2022-12-18T01:03:49;93266.00;;;-17.87
69420;BMP280;56612;52.030;113.524;2022-12-18T01:06:54;93259.56;;;-17.82
69420;BMP280;56612;52.030;113.524;2022-12-18T01:09:58;93255.16;;;-17.82
69420;BMP280;56612;52.030;113.524;2022-12-18T01:13:02;93256.84;;;-17.79
69420;BMP280;56612;52.030;113.524;2022-12-18T01:16:05;93261.94;;;-17.79
69420;BMP280;56612;52.030;113.524;2022-12-18T01:19:09;93260.66;;;-17.68
69420;BMP280;56612;52.030;113.524;2022-12-18T01:22:12;93266.69;;;-17.71
69420;BMP280;56612;52.030;113.524;2022-12-18T01:25:16;93270.25;;;-17.63
69420;BMP280;56612;52.030;113.524;2022-12-18T01:28:19;93282.69;;;-17.51
69420;BMP280;56612;52.030;113.524;2022-12-18T01:31:28;93270.28;;;-17.37
69420;BMP280;56612;52.030;113.524;2022-12-18T01:34:32;93273.06;;;-17.15
69420;BMP280;56612;52.030;113.524;2022-12-18T01:37:38;93278.09;;;-17.00
69420;BMP280;56612;52.030;113.524;2022-12-18T01:40:42;93281.00;;;-16.81
69420;BMP280;56612;52.030;113.524;2022-12-18T01:43:56;93282.84;;;-16.56
69420;BMP280;56612;52.030;113.524;2022-12-18T01:47:00;93282.47;;;-16.43
69420;BMP280;56612;52.030;113.524;2022-12-18T01:50:29;93276.34;;;-16.19
69420;BMP280;56612;52.030;113.524;2022-12-18T01:53:33;93286.63;;;-15.65
69420;BMP280;56612;52.030;113.524;2022-12-18T01:56:37;93276.91;;;-15.44
69420;BMP280;56612;52.030;113.524;2022-12-18T01:59:43;93280.72;;;-15.00
69420;BMP280;56612;52.030;113.524;2022-12-18T02:02:49;93286.78;;;-14.47
69420;BMP280;56612;52.030;113.524;2022-12-18T02:09:22;93293.63;;;-13.22
69420;BMP280;56612;52.030;113.524;2022-12-18T02:13:01;93289.53;;;-13.01
69420;BMP280;56612;52.030;113.524;2022-12-18T02:16:34;93296.53;;;-13.01
69420;BMP280;56612;52.030;113.524;2022-12-18T02:23:24;93291.88;;;-15.03
69420;BMP280;56612;52.030;113.524;2022-12-18T02:26:36;93288.56;;;-15.43
69420;BMP280;56612;52.030;113.524;2022-12-18T02:29:52;93296.00;;;-15.45
69420;BMP280;56612;52.030;113.524;2022-12-18T02:33:05;93293.78;;;-15.69
69420;BMP280;56612;52.030;113.524;2022-12-18T02:36:11;93290.31;;;-15.72
69420;BMP280;56612;52.030;113.524;2022-12-18T02:39:16;93294.53;;;-15.58
69420;BMP280;56612;52.030;113.524;2022-12-18T02:42:32;93284.06;;;-15.65
69420;BMP280;56612;52.030;113.524;2022-12-18T02:45:53;93283.44;;;-15.43
69420;BMP280;56612;52.030;113.524;2022-12-18T02:49:06;93288.38;;;-15.23
69420;BMP280;56612;52.030;113.524;2022-12-18T02:59:12;93277.94;;;-14.80
69420;BMP280;56612;52.030;113.524;2022-12-18T03:05:53;93265.13;;;-14.74
69420;BMP280;56612;52.030;113.524;2022-12-18T03:09:03;93269.56;;;-14.75
69420;BMP280;56612;52.030;113.524;2022-12-18T03:12:18;93268.88;;;-14.81
69420;BMP280;56612;52.030;113.524;2022-12-18T03:15:33;93262.06;;;-15.06
69420;BMP280;56612;52.030;113.524;2022-12-18T03:18:46;93261.38;;;-15.07
69420;BMP280;56612;52.030;113.524;2022-12-18T03:21:54;93270.25;;;-14.91
69420;BMP280;56612;52.030;113.524;2022-12-18T03:25:02;93260.22;;;-14.89
69420;BMP280;56612;52.030;113.524;2022-12-18T03:28:09;93264.19;;;-14.88
69420;BMP280;56612;52.030;113.524;2022-12-18T03:31:16;93262.34;;;-14.82
69420;BMP280;56612;52.030;113.524;2022-12-18T03:34:28;93258.13;;;-14.68
69420;BMP280;56612;52.030;113.524;2022-12-18T03:37:36;93249.50;;;-14.60
69420;BMP280;56612;52.030;113.524;2022-12-18T03:43:51;93254.84;;;-14.63
69420;BMP280;56612;52.030;113.524;2022-12-18T03:47:08;93247.63;;;-14.70
69420;BMP280;56612;52.030;113.524;2022-12-18T03:50:21;93244.84;;;-14.61
69420;BMP280;56612;52.030;113.524;2022-12-18T03:53:42;93250.19;;;-14.48
69420;BMP280;56612;52.030;113.524;2022-12-18T03:56:52;93244.56;;;-14.41
69420;BMP280;56612;52.030;113.524;2022-12-18T04:00:03;93242.94;;;-14.32
69420;BMP280;56612;52.030;113.524;2022-12-18T04:03:16;93233.88;;;-14.50
69420;BMP280;56612;52.030;113.524;2022-12-18T04:06:29;93243.84;;;-14.36
69420;BMP280;56612;52.030;113.524;2022-12-18T04:09:36;93243.63;;;-14.32
69420;BMP280;56612;52.030;113.524;2022-12-18T04:12:43;93234.06;;;-14.31
69420;BMP280;56612;52.030;113.524;2022-12-18T04:15:49;93237.34;;;-14.42
69420;BMP280;56612;52.030;113.524;2022-12-18T04:18:54;93234.56;;;-14.39
69420;BMP280;56612;52.030;113.524;2022-12-18T04:21:59;93240.56;;;-14.25
69420;BMP280;56612;52.030;113.524;2022-12-18T04:25:06;93237.53;;;-14.18
69420;BMP280;56612;52.030;113.524;2022-12-18T04:28:13;93237.53;;;-14.23
69420;BMP280;56612;52.030;113.524;2022-12-18T04:31:17;93235.03;;;-14.40
69420;BMP280;56612;52.030;113.524;2022-12-18T04:34:22;93234.06;;;-14.31
69420;BMP280;56612;52.030;113.524;2022-12-18T04:37:27;93228.91;;;-14.26
69420;BMP280;56612;52.030;113.524;2022-12-18T04:40:31;93220.75;;;-14.36
69420;BMP280;56612;52.030;113.524;2022-12-18T04:43:39;93218.47;;;-14.39
69420;BMP280;56612;52.030;113.524;2022-12-18T04:46:43;93217.78;;;-14.45
69420;BMP280;56612;52.030;113.524;2022-12-18T04:49:46;93203.06;;;-14.39
69420;BMP280;56612;52.030;113.524;2022-12-18T04:52:50;93205.16;;;-14.43
69420;BMP280;56612;52.030;113.524;2022-12-18T04:56:22;93194.00;;;-14.63
69420;BMP280;56612;52.030;113.524;2022-12-18T04:59:25;93199.34;;;-14.44
69420;BMP280;56612;52.030;113.524;2022-12-18T05:02:28;93195.09;;;-14.24
69420;BMP280;56612;52.030;113.524;2022-12-18T05:05:34;93189.91;;;-14.07
69420;BMP280;56612;52.030;113.524;2022-12-18T05:08:38;93192.00;;;-14.12
69420;BMP280;56612;52.030;113.524;2022-12-18T05:11:42;93199.00;;;-14.06
69420;BMP280;56612;52.030;113.524;2022-12-18T05:14:48;93195.22;;;-13.94
69420;BMP280;56612;52.030;113.524;2022-12-18T05:17:52;93185.38;;;-13.90
69420;BMP280;56612;52.030;113.524;2022-12-18T05:20:56;93187.19;;;-13.79
69420;BMP280;56612;52.030;113.524;2022-12-18T05:24:00;93189.78;;;-13.85
69420;BMP280;56612;52.030;113.524;2022-12-18T05:27:03;93196.28;;;-13.78
69420;BMP280;56612;52.030;113.524;2022-12-18T05:30:07;93192.72;;;-13.64
69420;BMP280;56612;52.030;113.524;2022-12-18T05:33:11;93189.94;;;-13.66
69420;BMP280;56612;52.030;113.524;2022-12-18T05:36:14;93176.19;;;-13.74
69420;BMP280;56612;52.030;113.524;2022-12-18T05:39:17;93182.03;;;-13.74
69420;BMP280;56612;52.030;113.524;2022-12-18T05:42:23;93189.88;;;-13.61
69420;BMP280;56612;52.030;113.524;2022-12-18T05:45:26;93184.00;;;-13.50
69420;BMP280;56612;52.030;113.524;2022-12-18T05:48:31;93190.72;;;-13.41
69420;BMP280;56612;52.030;113.524;2022-12-18T05:51:35;93186.88;;;-13.23
69420;BMP280;56612;52.030;113.524;2022-12-18T05:54:38;93190.69;;;-13.05
69420;BMP280;56612;52.030;113.524;2022-12-18T05:57:42;93188.34;;;-12.11
69420;BMP280;56612;52.030;113.524;2022-12-18T06:00:47;93190.72;;;-8.95
69420;BMP280;56612;52.030;113.524;2022-12-18T06:03:50;93197.78;;;-9.92
69420;BMP280;56612;52.030;113.524;2022-12-18T06:06:54;93185.94;;;-10.75
69420;BMP280;56612;52.030;113.524;2022-12-18T06:09:58;93194.47;;;-10.40
69420;BMP280;56612;52.030;113.524;2022-12-18T06:13:02;93199.91;;;-6.93
69420;BMP280;56612;52.030;113.524;2022-12-18T06:16:06;93197.31;;;-7.32
69420;BMP280;56612;52.030;113.524;2022-12-18T06:19:15;93204.44;;;-5.91
69420;BMP280;56612;52.030;113.524;2022-12-18T06:22:19;93220.13;;;-4.29
69420;BMP280;56612;52.030;113.524;2022-12-18T06:25:23;93217.03;;;-3.74
69420;BMP280;56612;52.030;113.524;2022-12-18T06:28:26;93192.97;;;-5.88
69420;BMP280;56612;52.030;113.524;2022-12-18T06:31:30;93199.03;;;-8.60
69420;BMP280;56612;52.030;113.524;2022-12-18T06:34:34;93200.56;;;-7.62
69420;BMP280;56612;52.030;113.524;2022-12-18T06:37:40;93216.59;;;-5.11
69420;BMP280;56612;52.030;113.524;2022-12-18T06:40:44;93217.78;;;-3.54
69420;BMP280;56612;52.030;113.524;2022-12-18T06:43:48;93212.03;;;-4.51
69420;BMP280;56612;52.030;113.524;2022-12-18T06:46:54;93203.69;;;-6.87
69420;BMP280;56612;52.030;113.524;2022-12-18T06:49:58;93197.91;;;-9.01
69420;BMP280;56612;52.030;113.524;2022-12-18T06:53:01;93198.75;;;-9.69
69420;BMP280;56612;52.030;113.524;2022-12-18T06:56:07;93200.25;;;-10.21
69420;BMP280;56612;52.030;113.524;2022-12-18T06:59:13;93202.00;;;-10.16
69420;BMP280;56612;52.030;113.524;2022-12-18T07:02:18;93205.34;;;-9.18
69420;BMP280;56612;52.030;113.524;2022-12-18T07:05:21;93197.69;;;-9.87
69420;BMP280;56612;52.030;113.524;2022-12-18T07:08:26;93192.69;;;-10.45
69420;BMP280;56612;52.030;113.524;2022-12-18T07:11:33;93195.97;;;-10.18
69420;BMP280;56612;52.030;113.524;2022-12-18T07:14:36;93202.81;;;-8.61
69420;BMP280;56612;52.030;113.524;2022-12-18T07:17:40;93207.34;;;-9.32
69420;BMP280;56612;52.030;113.524;2022-12-18T07:20:43;93207.69;;;-9.83
69420;BMP280;56612;52.030;113.524;2022-12-18T07:23:49;93212.13;;;-9.57
69420;BMP280;56612;52.030;113.524;2022-12-18T07:26:53;93202.72;;;-10.55
69420;BMP280;56612;52.030;113.524;2022-12-18T07:29:56;93206.19;;;-11.56
69420;BMP280;56612;52.030;113.524;2022-12-18T07:33:00;93205.00;;;-12.31
69420;BMP280;56612;52.030;113.524;2022-12-18T07:36:05;93203.69;;;-12.68
69420;BMP280;56612;52.030;113.524;2022-12-18T07:39:10;93204.72;;;-13.06
69420;BMP280;56612;52.030;113.524;2022-12-18T07:42:15;93211.75;;;-13.43
69420;BMP280;56612;52.030;113.524;2022-12-18T07:45:34;93215.16;;;-13.65
69420;BMP280;56612;52.030;113.524;2022-12-18T07:48:38;93210.94;;;-13.68
69420;BMP280;56612;52.030;113.524;2022-12-18T07:51:42;93209.88;;;-13.89
69420;BMP280;56612;52.030;113.524;2022-12-18T07:54:45;93219.97;;;-14.02
69420;BMP280;56612;52.030;113.524;2022-12-18T07:57:52;93220.72;;;-14.13
69420;BMP280;56612;52.030;113.524;2022-12-18T08:01:07;93218.88;;;-14.24
69420;BMP280;56612;52.030;113.524;2022-12-18T08:04:12;93217.75;;;-14.34
69420;BMP280;56612;52.030;113.524;2022-12-18T08:07:16;93228.03;;;-14.45
69420;BMP280;56612;52.030;113.524;2022-12-18T08:10:19;93229.22;;;-14.63
69420;BMP280;56612;52.030;113.524;2022-12-18T08:13:23;93228.28;;;-14.88
69420;BMP280;56612;52.030;113.524;2022-12-18T08:16:27;93225.28;;;-14.98
69420;BMP280;56612;52.030;113.524;2022-12-18T08:19:31;93223.41;;;-15.03
69420;BMP280;56612;52.030;113.524;2022-12-18T08:22:37;93228.06;;;-15.13
69420;BMP280;56612;52.030;113.524;2022-12-18T08:25:40;93232.25;;;-15.10
69420;BMP280;56612;52.030;113.524;2022-12-18T08:28:44;93228.53;;;-15.09
69420;BMP280;56612;52.030;113.524;2022-12-18T08:31:47;93228.03;;;-15.24
69420;BMP280;56612;52.030;113.524;2022-12-18T08:34:51;93234.56;;;-15.34
69420;BMP280;56612;52.030;113.524;2022-12-18T08:37:55;93236.88;;;-15.30
69420;BMP280;56612;52.030;113.524;2022-12-18T08:40:59;93245.50;;;-15.28
69420;BMP280;56612;52.030;113.524;2022-12-18T08:44:03;93243.63;;;-15.39
69420;BMP280;56612;52.030;113.524;2022-12-18T08:47:25;93250.13;;;-15.54
69420;BMP280;56612;52.030;113.524;2022-12-18T08:50:29;93250.78;;;-15.60
69420;BMP280;56612;52.030;113.524;2022-12-18T08:53:33;93254.47;;;-15.72
69420;BMP280;56612;52.030;113.524;2022-12-18T08:56:37;93253.53;;;-15.69
69420;BMP280;56612;52.030;113.524;2022-12-18T08:59:41;93257.25;;;-15.70
69420;BMP280;56612;52.030;113.524;2022-12-18T09:02:44;93252.78;;;-15.81
69420;BMP280;56612;52.030;113.524;2022-12-18T09:05:48;93268.16;;;-15.86
69420;BMP280;56612;52.030;113.524;2022-12-18T09:08:51;93260.44;;;-15.92
69420;BMP280;56612;52.030;113.524;2022-12-18T09:11:54;93258.13;;;-15.90
69420;BMP280;56612;52.030;113.524;2022-12-18T09:14:58;93258.81;;;-15.89
69420;BMP280;56612;52.030;113.524;2022-12-18T09:18:02;93263.00;;;-15.92
69420;BMP280;56612;52.030;113.524;2022-12-18T09:21:11;93265.97;;;-16.04
69420;BMP280;56612;52.030;113.524;2022-12-18T09:24:15;93252.66;;;-16.14
69420;BMP280;56612;52.030;113.524;2022-12-18T09:27:19;93258.03;;;-16.07
69420;BMP280;56612;52.030;113.524;2022-12-18T09:30:23;93256.91;;;-16.06
69420;BMP280;56612;52.030;113.524;2022-12-18T09:33:27;93257.78;;;-16.09
69420;BMP280;56612;52.030;113.524;2022-12-18T09:36:30;93260.56;;;-16.12
69420;BMP280;56612;52.030;113.524;2022-12-18T09:39:33;93246.16;;;-16.15
69420;BMP280;56612;52.030;113.524;2022-12-18T09:42:37;93253.53;;;-16.23
69420;BMP280;56612;52.030;113.524;2022-12-18T09:45:46;93260.44;;;-16.29
69420;BMP280;56612;52.030;113.524;2022-12-18T09:48:51;93259.97;;;-16.39
69420;BMP280;56612;52.030;113.524;2022-12-18T09:52:16;93260.91;;;-16.36
69420;BMP280;56612;52.030;113.524;2022-12-18T09:55:38;93266.50;;;-16.32
69420;BMP280;56612;52.030;113.524;2022-12-18T09:58:55;93271.25;;;-16.51
69420;BMP280;56612;52.030;113.524;2022-12-18T10:02:15;93261.03;;;-16.51
69420;BMP280;56612;52.030;113.524;2022-12-18T10:06:02;93269.38;;;-16.50
69420;BMP280;56612;52.030;113.524;2022-12-18T10:09:06;93271.00;;;-16.59
69420;BMP280;56612;52.030;113.524;2022-12-18T10:12:36;93252.41;;;-16.59
69420;BMP280;56612;52.030;113.524;2022-12-18T10:28:53;93271.41;;;-16.60
69420;BMP280;56612;52.030;113.524;2022-12-18T10:32:02;93271.84;;;-16.67
69420;BMP280;56612;52.030;113.524;2022-12-18T10:35:20;93258.84;;;-16.69
69420;BMP280;56612;52.030;113.524;2022-12-18T10:38:25;93271.16;;;-16.68
69420;BMP280;56612;52.030;113.524;2022-12-18T10:41:28;93279.56;;;-16.88
69420;BMP280;56612;52.030;113.524;2022-12-18T10:44:34;93271.53;;;-17.07
69420;BMP280;56612;52.030;113.524;2022-12-18T10:47:45;93263.31;;;-17.16
69420;BMP280;56612;52.030;113.524;2022-12-18T10:50:51;93277.47;;;-17.15
69420;BMP280;56612;52.030;113.524;2022-12-18T10:54:16;93274.97;;;-17.10
69420;BMP280;56612;52.030;113.524;2022-12-18T10:57:40;93274.28;;;-17.10
69420;BMP280;56612;52.030;113.524;2022-12-18T11:00:44;93273.72;;;-17.20
69420;BMP280;56612;52.030;113.524;2022-12-18T11:07:05;93273.88;;;-17.23
69420;BMP280;56612;52.030;113.524;2022-12-18T11:10:17;93261.66;;;-17.19
69420;BMP280;56612;52.030;113.524;2022-12-18T11:13:23;93272.78;;;-17.17
69420;BMP280;56612;52.030;113.524;2022-12-18T11:16:29;93259.56;;;-17.21
69420;BMP280;56612;52.030;113.524;2022-12-18T11:19:37;93268.38;;;-17.22
69420;BMP280;56612;52.030;113.524;2022-12-18T11:22:40;93271.09;;;-17.26
69420;BMP280;56612;52.030;113.524;2022-12-18T11:25:55;93261.09;;;-17.29
69420;BMP280;56612;52.030;113.524;2022-12-18T11:29:15;93257.19;;;-17.25
69420;BMP280;56612;52.030;113.524;2022-12-18T11:32:30;93279.28;;;-17.21
69420;BMP280;56612;52.030;113.524;2022-12-18T11:35:50;93273.56;;;-17.37
69420;BMP280;56612;52.030;113.524;2022-12-18T11:38:55;93257.28;;;-17.60
69420;BMP280;56612;52.030;113.524;2022-12-18T11:42:51;93262.19;;;-17.56
69420;BMP280;56612;52.030;113.524;2022-12-18T11:45:53;93268.44;;;-17.57
69420;BMP280;56612;52.030;113.524;2022-12-18T11:52:18;93275.53;;;-17.67
69420;BMP280;56612;52.030;113.524;2022-12-18T11:58:50;93275.03;;;-17.71
69420;BMP280;56612;52.030;113.524;2022-12-18T12:02:42;93275.28;;;-17.69
69420;BMP280;56612;52.030;113.524;2022-12-18T12:16:03;93261.47;;;-17.98
69420;BMP280;56612;52.030;113.524;2022-12-18T12:25:46;93259.31;;;-18.05
69420;BMP280;56612;52.030;113.524;2022-12-18T12:29:02;93269.13;;;-17.98
69420;BMP280;56612;52.030;113.524;2022-12-18T12:32:30;93259.75;;;-18.06
69420;BMP280;56612;52.030;113.524;2022-12-18T12:36:20;93261.19;;;-18.20
69420;BMP280;56612;52.030;113.524;2022-12-18T12:39:21;93259.44;;;-18.29
69420;BMP280;56612;52.030;113.524;2022-12-18T12:45:51;93244.25;;;-18.38
69420;BMP280;56612;52.030;113.524;2022-12-18T12:48:59;93246.47;;;-18.46
69420;BMP280;56612;52.030;113.524;2022-12-18T12:52:10;93249.03;;;-18.60
69420;BMP280;56612;52.030;113.524;2022-12-18T12:55:33;93246.75;;;-18.73
69420;BMP280;56612;52.030;113.524;2022-12-18T13:01:55;93239.56;;;-18.75
69420;BMP280;56612;52.030;113.524;2022-12-18T13:08:31;93244.94;;;-18.87
69420;BMP280;56612;52.030;113.524;2022-12-18T13:11:42;93240.91;;;-18.94
69420;BMP280;56612;52.030;113.524;2022-12-18T13:15:22;93239.41;;;-18.86
69420;BMP280;56612;52.030;113.524;2022-12-18T13:18:27;93238.50;;;-18.83
69420;BMP280;56612;52.030;113.524;2022-12-18T13:21:34;93228.41;;;-18.92
69420;BMP280;56612;52.030;113.524;2022-12-18T13:24:38;93218.69;;;-18.94
69420;BMP280;56612;52.030;113.524;2022-12-18T13:37:40;93213.16;;;-18.77
69420;BMP280;56612;52.030;113.524;2022-12-18T13:47:36;93212.81;;;-18.50
69420;BMP280;56612;52.030;113.524;2022-12-18T13:50:40;93214.50;;;-18.47
69420;BMP280;56612;52.030;113.524;2022-12-18T13:53:50;93213.13;;;-18.48
69420;BMP280;56612;52.030;113.524;2022-12-18T13:56:55;93212.75;;;-18.55
69420;BMP280;56612;52.030;113.524;2022-12-18T14:00:14;93198.72;;;-18.65
69420;BMP280;56612;52.030;113.524;2022-12-18T14:03:28;93205.91;;;-18.49
69420;BMP280;56612;52.030;113.524;2022-12-18T14:06:32;93197.38;;;-18.61
69420;BMP280;56612;52.030;113.524;2022-12-18T14:09:45;93203.88;;;-18.45
69420;BMP280;56612;52.030;113.524;2022-12-18T14:12:50;93198.66;;;-18.36
69420;BMP280;56612;52.030;113.524;2022-12-18T14:16:06;93189.53;;;-18.42
69420;BMP280;56612;52.030;113.524;2022-12-18T14:19:15;93191.91;;;-18.39
69420;BMP280;56612;52.030;113.524;2022-12-18T14:22:20;93197.78;;;-18.33
69420;BMP280;56612;52.030;113.524;2022-12-18T14:25:25;93197.06;;;-18.33
69420;BMP280;56612;52.030;113.524;2022-12-18T14:28:30;93193.88;;;-18.28
69420;BMP280;56612;52.030;113.524;2022-12-18T14:31:33;93199.75;;;-18.22
69420;BMP280;56612;52.030;113.524;2022-12-18T14:34:37;93193.16;;;-18.14
69420;BMP280;56612;52.030;113.524;2022-12-18T14:37:41;93195.94;;;-18.12
69420;BMP280;56612;52.030;113.524;2022-12-18T14:40:44;93199.63;;;-18.13
69420;BMP280;56612;52.030;113.524;2022-12-18T14:43:49;93189.91;;;-18.14
69420;BMP280;56612;52.030;113.524;2022-12-18T14:46:53;93190.00;;;-18.03
69420;BMP280;56612;52.030;113.524;2022-12-18T14:49:57;93189.38;;;-17.98
69420;BMP280;56612;52.030;113.524;2022-12-18T14:53:01;93197.34;;;-18.11
69420;BMP280;56612;52.030;113.524;2022-12-18T14:59:23;93194.72;;;-18.16
69420;BMP280;56612;52.030;113.524;2022-12-18T15:02:28;93190.94;;;-18.21
69420;BMP280;56612;52.030;113.524;2022-12-18T15:05:32;93202.31;;;-18.22
69420;BMP280;56612;52.030;113.524;2022-12-18T15:08:37;93194.66;;;-18.22
69420;BMP280;56612;52.030;113.524;2022-12-18T15:14:43;93188.66;;;-18.39
69420;BMP280;56612;52.030;113.524;2022-12-18T15:17:46;93188.97;;;-18.32
69420;BMP280;56612;52.030;113.524;2022-12-18T15:20:55;93187.22;;;-18.40
69420;BMP280;56612;52.030;113.524;2022-12-18T15:23:59;93176.88;;;-18.37
69420;BMP280;56612;52.030;113.524;2022-12-18T15:27:03;93187.38;;;-18.29
69420;BMP280;56612;52.030;113.524;2022-12-18T15:33:23;93171.19;;;-18.47
69420;BMP280;56612;52.030;113.524;2022-12-18T15:36:27;93176.34;;;-18.41
69420;BMP280;56612;52.030;113.524;2022-12-18T15:39:32;93167.25;;;-18.48
69420;BMP280;56612;52.030;113.524;2022-12-18T15:42:35;93169.75;;;-18.68
69420;BMP280;56612;52.030;113.524;2022-12-18T15:45:57;93171.25;;;-18.76
69420;BMP280;56612;52.030;113.524;2022-12-18T15:49:02;93161.97;;;-18.79
69420;BMP280;56612;52.030;113.524;2022-12-18T15:52:07;93174.97;;;-18.77
69420;BMP280;56612;52.030;113.524;2022-12-18T15:55:19;93172.50;;;-18.86
69420;BMP280;56612;52.030;113.524;2022-12-18T15:58:42;93168.03;;;-19.06
69420;BMP280;56612;52.030;113.524;2022-12-18T16:01:49;93167.25;;;-19.13
69420;BMP280;56612;52.030;113.524;2022-12-18T16:04:53;93163.03;;;-19.45
69420;BMP280;56612;52.030;113.524;2022-12-18T16:07:57;93160.97;;;-19.56
69420;BMP280;56612;52.030;113.524;2022-12-18T16:11:02;93162.81;;;-19.56
69420;BMP280;56612;52.030;113.524;2022-12-18T16:17:14;93159.44;;;-19.77
69420;BMP280;56612;52.030;113.524;2022-12-18T16:20:22;93149.22;;;-19.83
69420;BMP280;56612;52.030;113.524;2022-12-18T16:23:26;93157.97;;;-19.84
69420;BMP280;56612;52.030;113.524;2022-12-18T16:26:30;93149.47;;;-19.81
69420;BMP280;56612;52.030;113.524;2022-12-18T16:29:34;93143.16;;;-19.86
69420;BMP280;56612;52.030;113.524;2022-12-18T16:32:38;93149.91;;;-19.83
69420;BMP280;56612;52.030;113.524;2022-12-18T16:35:41;93141.47;;;-19.89
69420;BMP280;56612;52.030;113.524;2022-12-18T16:38:45;93138.16;;;-19.80
69420;BMP280;56612;52.030;113.524;2022-12-18T16:41:49;93139.38;;;-19.90
69420;BMP280;56612;52.030;113.524;2022-12-18T16:44:53;93142.97;;;-19.82
69420;BMP280;56612;52.030;113.524;2022-12-18T16:47:56;93139.63;;;-19.88
69420;BMP280;56612;52.030;113.524;2022-12-18T16:51:01;93137.41;;;-19.95
69420;BMP280;56612;52.030;113.524;2022-12-18T16:54:05;93132.31;;;-19.95
69420;BMP280;56612;52.030;113.524;2022-12-18T16:57:16;93139.81;;;-19.92
69420;BMP280;56612;52.030;113.524;2022-12-18T17:00:20;93140.50;;;-19.91
69420;BMP280;56612;52.030;113.524;2022-12-18T17:03:23;93141.78;;;-19.96
69420;BMP280;56612;52.030;113.524;2022-12-18T17:06:31;93139.81;;;-19.92
69420;BMP280;56612;52.030;113.524;2022-12-18T17:09:34;93138.09;;;-19.95
69420;BMP280;56612;52.030;113.524;2022-12-18T17:12:38;93145.22;;;-19.99
69420;BMP280;56612;52.030;113.524;2022-12-18T17:15:42;93139.06;;;-20.07
69420;BMP280;56612;52.030;113.524;2022-12-18T17:18:45;93134.59;;;-20.12
69420;BMP280;56612;52.030;113.524;2022-12-18T17:21:50;93139.13;;;-20.16
69420;BMP280;56612;52.030;113.524;2022-12-18T17:24:53;93137.88;;;-20.21
69420;BMP280;56612;52.030;113.524;2022-12-18T17:27:56;93133.22;;;-20.22
69420;BMP280;56612;52.030;113.524;2022-12-18T17:31:00;93134.91;;;-20.19
69420;BMP280;56612;52.030;113.524;2022-12-18T17:34:04;93135.59;;;-20.19
69420;BMP280;56612;52.030;113.524;2022-12-18T17:37:08;93134.22;;;-20.20
69420;BMP280;56612;52.030;113.524;2022-12-18T17:40:11;93131.84;;;-20.23
69420;BMP280;56612;52.030;113.524;2022-12-18T17:43:15;93132.78;;;-20.21
69420;BMP280;56612;52.030;113.524;2022-12-18T17:46:18;93134.22;;;-20.20
69420;BMP280;56612;52.030;113.524;2022-12-18T17:49:22;93128.19;;;-20.32
69420;BMP280;56612;52.030;113.524;2022-12-18T17:52:26;93132.47;;;-20.38
69420;BMP280;56612;52.030;113.524;2022-12-18T17:55:29;93130.34;;;-20.39
69420;BMP280;56612;52.030;113.524;2022-12-18T17:58:38;93130.63;;;-20.37
69420;BMP280;56612;52.030;113.524;2022-12-18T18:01:41;93129.81;;;-20.43
69420;BMP280;56612;52.030;113.524;2022-12-18T18:04:47;93127.97;;;-20.43
69420;BMP280;56612;52.030;113.524;2022-12-18T18:07:50;93125.72;;;-20.41
69420;BMP280;56612;52.030;113.524;2022-12-18T18:10:54;93131.34;;;-20.37
69420;BMP280;56612;52.030;113.524;2022-12-18T18:14:19;93138.75;;;-20.24
69420;BMP280;56612;52.030;113.524;2022-12-18T18:17:23;93137.38;;;-20.25
69420;BMP280;56612;52.030;113.524;2022-12-18T18:20:26;93133.50;;;-20.20
69420;BMP280;56612;52.030;113.524;2022-12-18T18:23:33;93137.56;;;-20.14
69420;BMP280;56612;52.030;113.524;2022-12-18T18:26:37;93137.38;;;-20.10
69420;BMP280;56612;52.030;113.524;2022-12-18T18:29:40;93139.75;;;-20.07
69420;BMP280;56612;52.030;113.524;2022-12-18T18:32:43;93141.06;;;-20.11
69420;BMP280;56612;52.030;113.524;2022-12-18T18:35:46;93126.31;;;-20.22
69420;BMP280;56612;52.030;113.524;2022-12-18T18:38:58;93135.53;;;-20.10
69420;BMP280;56612;52.030;113.524;2022-12-18T18:42:03;93136.25;;;-20.09
69420;BMP280;56612;52.030;113.524;2022-12-18T18:45:07;93123.94;;;-20.25
69420;BMP280;56612;52.030;113.524;2022-12-18T18:48:11;93120.41;;;-20.28
69420;BMP280;56612;52.030;113.524;2022-12-18T18:51:17;93119.38;;;-20.21
69420;BMP280;56612;52.030;113.524;2022-12-18T18:54:23;93115.72;;;-20.20
69420;BMP280;56612;52.030;113.524;2022-12-18T18:57:28;93111.44;;;-20.14